Aviation Digital Data Service (ADDS)

Output produced by TAFs form (1914 UTC 21 April 2018)
found at http://aviationweather.gov/adds/tafs/
 
Forecast for: RJSF (FUKUSHIMA ARPT , JP)
Text: TAF RJSF 211705Z 2118/2300 35008KT 9999 FEW030
Forecast period: 1800 UTC 21 April 2018 to 0000 UTC 23 April 2018
Forecast type: FROM: standard forecast or significant change
Winds: from the N (350 degrees) at 9 MPH (8 knots; 4.2 m/s)
Visibility: 6 or more miles (10+ km)
Clouds: few clouds at 3000 feet AGL
Weather: no significant weather forecast for this period
Forecast for: RJSF (FUKUSHIMA ARPT , JP)
Text: TAF RJSF 211705Z 2118/2300 35008KT 9999 FEW030
Forecast period: 1800 UTC 21 April 2018 to 0000 UTC 23 April 2018
Forecast type: FROM: standard forecast or significant change
Winds: from the N (350 degrees) at 9 MPH (8 knots; 4.2 m/s)
Visibility: 6 or more miles (10+ km)
Clouds: few clouds at 3000 feet AGL
Weather: no significant weather forecast for this period
Forecast for: RJSF (FUKUSHIMA ARPT , JP)
Text: TAF RJSF 211705Z 2118/2300 35008KT 9999 FEW030
Forecast period: 1500 to 2100 UTC 22 April 2018
Forecast type: TEMPORARY: The following changes expected for less than half the time period
Visibility: 1.86 miles (2.99 km)
Ceiling: 300 feet AGL
Clouds: few clouds at 100 feet AGL
broken clouds at 300 feet AGL
Weather: BR  (mist)
Forecast for: RJSF (FUKUSHIMA ARPT , JP)
Text: TAF RJSF 211705Z 2118/2300 35008KT 9999 FEW030
Forecast period: 1500 to 2100 UTC 22 April 2018
Forecast type: TEMPORARY: The following changes expected for less than half the time period
Visibility: 1.86 miles (2.99 km)
Ceiling: 300 feet AGL
Clouds: few clouds at 100 feet AGL
broken clouds at 300 feet AGL
Weather: BR  (mist)